createdAt,value
2023-02-12T00:00:08.424Z,9.78571
2023-02-12T00:01:08.440Z,9.78571
2023-02-12T00:02:08.515Z,9.78571
2023-02-12T00:03:08.588Z,9.78571
2023-02-12T00:04:08.582Z,9.78571
2023-02-12T00:05:08.569Z,9.78571
2023-02-12T00:06:08.608Z,9.78571
2023-02-12T00:07:08.636Z,9.78571
2023-02-12T00:08:08.682Z,9.78571
2023-02-12T00:09:08.716Z,9.85714
2023-02-12T00:10:08.745Z,9.85714
2023-02-12T00:11:08.767Z,9.85714
2023-02-12T00:12:08.814Z,9.85714
2023-02-12T00:13:08.850Z,9.85714
2023-02-12T00:14:08.879Z,9.92857
2023-02-12T00:15:08.909Z,9.92857
2023-02-12T00:16:09.002Z,9.92857
2023-02-12T00:17:08.960Z,9.92857
2023-02-12T00:18:09.045Z,9.92857
2023-02-12T00:19:09.032Z,9.92857
2023-02-12T00:20:09.070Z,9.92857
2023-02-12T00:21:09.110Z,9.92857
2023-02-12T00:22:09.134Z,9.92857
2023-02-12T00:23:09.189Z,9.92857
2023-02-12T00:24:09.207Z,10
2023-02-12T00:25:09.252Z,10
2023-02-12T00:26:09.291Z,10
2023-02-12T00:27:09.316Z,10
2023-02-12T00:28:09.393Z,10
2023-02-12T00:29:09.384Z,10
2023-02-12T00:30:09.416Z,10
2023-02-12T00:31:09.577Z,10
2023-02-12T00:32:09.499Z,10
2023-02-12T00:33:09.527Z,9.92857
2023-02-12T00:34:09.579Z,9.92857
2023-02-12T00:35:09.573Z,9.92857
2023-02-12T00:36:09.635Z,9.92857
2023-02-12T00:37:09.650Z,9.92857
2023-02-12T00:38:09.672Z,9.92857
2023-02-12T00:39:09.720Z,9.92857
2023-02-12T00:40:09.756Z,9.92857
2023-02-12T00:41:09.788Z,9.92857
2023-02-12T00:42:09.821Z,9.85714
2023-02-12T00:43:09.861Z,9.85714
2023-02-12T00:44:09.896Z,9.85714
2023-02-12T00:45:09.934Z,9.85714
2023-02-12T00:46:10.112Z,9.85714
2023-02-12T00:47:10.002Z,9.85714
2023-02-12T00:48:10.035Z,9.85714
2023-02-12T00:49:10.070Z,9.85714
2023-02-12T00:50:10.095Z,9.85714
2023-02-12T00:51:10.133Z,9.85714
2023-02-12T00:52:10.180Z,9.85714
2023-02-12T00:53:10.197Z,9.85714
2023-02-12T00:54:10.232Z,9.85714
2023-02-12T00:55:10.268Z,9.85714
2023-02-12T00:56:10.297Z,9.85714
2023-02-12T00:57:10.339Z,9.78571
2023-02-12T00:58:10.392Z,9.85714
2023-02-12T00:59:10.407Z,9.78571
2023-02-12T01:00:10.438Z,9.85714
2023-02-12T01:01:10.497Z,9.78571
2023-02-12T01:02:10.514Z,9.85714
2023-02-12T01:03:10.538Z,9.85714
2023-02-12T01:04:10.579Z,9.85714
2023-02-12T01:05:10.669Z,9.85714
2023-02-12T01:06:10.641Z,9.85714
2023-02-12T01:07:10.675Z,9.85714
2023-02-12T01:08:10.714Z,9.78571
2023-02-12T01:09:10.738Z,9.85714
2023-02-12T01:10:10.780Z,9.78571
2023-02-12T01:11:10.810Z,9.85714
2023-02-12T01:12:10.854Z,9.85714
2023-02-12T01:13:10.886Z,9.78571
2023-02-12T01:14:10.922Z,9.78571
2023-02-12T01:15:10.957Z,9.78571
2023-02-12T01:16:11.152Z,9.78571
2023-02-12T01:17:11.028Z,9.78571
2023-02-12T01:18:11.085Z,9.78571
2023-02-12T01:19:11.097Z,9.85714
2023-02-12T01:20:11.134Z,9.78571
2023-02-12T01:21:11.167Z,9.78571
2023-02-12T01:22:11.191Z,9.71429
2023-02-12T01:23:11.232Z,9.71429
2023-02-12T01:24:11.277Z,9.71429
2023-02-12T01:25:11.305Z,9.71429
2023-02-12T01:26:11.335Z,9.71429
2023-02-12T01:27:11.368Z,9.78571
2023-02-12T01:28:11.447Z,9.78571
2023-02-12T01:29:11.437Z,9.78571
2023-02-12T01:30:11.473Z,9.78571
2023-02-12T01:31:11.663Z,9.78571
2023-02-12T01:32:11.582Z,9.78571
2023-02-12T01:33:11.574Z,9.78571
2023-02-12T01:34:11.621Z,9.78571
2023-02-12T01:35:11.664Z,9.78571
2023-02-12T01:36:11.681Z,9.78571
2023-02-12T01:37:11.717Z,9.78571
2023-02-12T01:38:11.749Z,9.78571
2023-02-12T01:39:11.791Z,9.71429
2023-02-12T01:40:11.812Z,9.71429
2023-02-12T01:41:11.874Z,9.71429
2023-02-12T01:42:11.892Z,9.71429
2023-02-12T01:43:11.927Z,9.71429
2023-02-12T01:44:11.953Z,9.71429
2023-02-12T01:45:12.011Z,9.71429
2023-02-12T01:46:12.138Z,9.71429
2023-02-12T01:47:12.062Z,9.71429
2023-02-12T01:48:12.091Z,9.64286
2023-02-12T01:49:12.130Z,9.64286
2023-02-12T01:50:12.151Z,9.64286
2023-02-12T01:51:12.204Z,9.64286
2023-02-12T01:52:12.221Z,9.64286
2023-02-12T01:53:12.260Z,9.64286
2023-02-12T01:54:12.286Z,9.64286
2023-02-12T01:55:12.329Z,9.71429
2023-02-12T01:56:12.355Z,9.71429
2023-02-12T01:57:12.392Z,9.71429
2023-02-12T01:58:12.431Z,9.71429
2023-02-12T01:59:12.460Z,9.78571
2023-02-12T02:00:12.487Z,9.78571
2023-02-12T02:01:12.514Z,9.78571
2023-02-12T02:02:12.556Z,9.78571
2023-02-12T02:03:12.640Z,9.78571
2023-02-12T02:04:12.614Z,9.78571
2023-02-12T02:05:12.658Z,9.78571
2023-02-12T02:06:12.701Z,9.78571
2023-02-12T02:07:12.731Z,9.78571
2023-02-12T02:08:12.766Z,9.71429
2023-02-12T02:09:12.801Z,9.71429
2023-02-12T02:10:12.825Z,9.71429
2023-02-12T02:11:12.864Z,9.71429
2023-02-12T02:12:12.897Z,9.78571
2023-02-12T02:13:12.937Z,9.78571
2023-02-12T02:14:12.964Z,9.78571
2023-02-12T02:15:12.987Z,9.78571
2023-02-12T02:16:13.061Z,9.78571
2023-02-12T02:17:13.058Z,9.78571
2023-02-12T02:18:13.081Z,9.78571
2023-02-12T02:19:13.123Z,9.78571
2023-02-12T02:20:13.158Z,9.78571
2023-02-12T02:21:13.190Z,9.78571
2023-02-12T02:22:13.216Z,9.71429
2023-02-12T02:23:13.284Z,9.71429
2023-02-12T02:24:13.285Z,9.71429
2023-02-12T02:25:13.326Z,9.64286
2023-02-12T02:26:13.350Z,9.64286
2023-02-12T02:27:13.389Z,9.64286
2023-02-12T02:28:13.497Z,9.64286
2023-02-12T02:29:13.460Z,9.64286
2023-02-12T02:30:13.486Z,9.64286
2023-02-12T02:31:13.642Z,9.64286
2023-02-12T02:32:13.557Z,9.64286
2023-02-12T02:33:13.595Z,9.71429
2023-02-12T02:34:13.634Z,9.71429
2023-02-12T02:35:13.649Z,9.71429
2023-02-12T02:36:13.694Z,9.71429
2023-02-12T02:37:13.727Z,9.71429
2023-02-12T02:38:13.752Z,9.71429
2023-02-12T02:39:13.822Z,9.71429
2023-02-12T02:40:13.860Z,9.71429
2023-02-12T02:41:13.862Z,9.71429
2023-02-12T02:42:13.894Z,9.71429
2023-02-12T02:43:13.939Z,9.71429
2023-02-12T02:44:13.980Z,9.64286
2023-02-12T02:45:14.013Z,9.64286
2023-02-12T02:46:14.143Z,9.64286
2023-02-12T02:47:14.108Z,9.57143
2023-02-12T02:48:14.092Z,9.57143
2023-02-12T02:49:14.141Z,9.5
2023-02-12T02:50:14.167Z,9.5
2023-02-12T02:51:14.200Z,9.5
2023-02-12T02:52:14.252Z,9.5
2023-02-12T02:53:14.277Z,9.5
2023-02-12T02:54:14.315Z,9.42857
2023-02-12T02:55:14.340Z,9.42857
2023-02-12T02:56:14.381Z,9.42857
2023-02-12T02:57:14.407Z,9.42857
2023-02-12T02:58:14.454Z,9.42857
2023-02-12T02:59:14.479Z,9.35714
2023-02-12T03:00:14.516Z,9.35714
2023-02-12T03:01:14.594Z,9.35714
2023-02-12T03:02:14.596Z,9.35714
2023-02-12T03:03:14.710Z,9.35714
2023-02-12T03:04:14.691Z,9.35714
2023-02-12T03:05:14.728Z,9.35714
2023-02-12T03:06:14.753Z,9.35714
2023-02-12T03:07:14.784Z,9.35714
2023-02-12T03:08:14.830Z,9.35714
2023-02-12T03:09:14.848Z,9.28571
2023-02-12T03:10:14.900Z,9.28571
2023-02-12T03:11:14.929Z,9.28571
2023-02-12T03:12:14.951Z,9.28571
2023-02-12T03:13:14.991Z,9.28571
2023-02-12T03:14:15.027Z,9.28571
2023-02-12T03:15:15.061Z,9.28571
2023-02-12T03:16:15.146Z,9.28571
2023-02-12T03:17:15.121Z,9.28571
2023-02-12T03:18:15.138Z,9.28571
2023-02-12T03:19:15.192Z,9.28571
2023-02-12T03:20:15.219Z,9.28571
2023-02-12T03:21:15.244Z,9.28571
2023-02-12T03:22:15.278Z,9.21429
2023-02-12T03:23:15.306Z,9.28571
2023-02-12T03:24:15.348Z,9.21429
2023-02-12T03:25:15.430Z,9.21429
2023-02-12T03:26:15.404Z,9.21429
2023-02-12T03:27:15.438Z,9.21429
2023-02-12T03:28:15.553Z,9.21429
2023-02-12T03:29:15.507Z,9.21429
2023-02-12T03:30:15.550Z,9.21429
2023-02-12T03:31:15.619Z,9.21429
2023-02-12T03:32:15.647Z,9.21429
2023-02-12T03:33:15.654Z,9.21429
2023-02-12T03:34:15.686Z,9.21429
2023-02-12T03:35:15.715Z,9.21429
2023-02-12T03:36:15.747Z,9.21429
2023-02-12T03:37:15.788Z,9.14286
2023-02-12T03:38:15.818Z,9.14286
2023-02-12T03:39:15.882Z,9.14286
2023-02-12T03:40:15.898Z,9.14286
2023-02-12T03:41:16.642Z,9.14286
2023-02-12T03:42:15.965Z,9.14286
2023-02-12T03:43:15.999Z,9.07143
2023-02-12T03:44:16.039Z,9.07143
2023-02-12T03:45:16.067Z,9.07143
2023-02-12T03:46:16.173Z,9.07143
2023-02-12T03:47:16.173Z,9.07143
2023-02-12T03:48:16.173Z,9.07143
2023-02-12T03:49:16.206Z,9.07143
2023-02-12T03:50:16.238Z,9.07143
2023-02-12T03:51:16.278Z,9.07143
2023-02-12T03:52:16.323Z,9.07143
2023-02-12T03:53:16.355Z,9
2023-02-12T03:54:16.415Z,9.07143
2023-02-12T03:55:16.460Z,9.07143
2023-02-12T03:56:16.461Z,9.07143
2023-02-12T03:57:16.486Z,9.07143
2023-02-12T03:58:16.517Z,9.07143
2023-02-12T03:59:16.581Z,9.07143
2023-02-12T04:00:16.587Z,9.07143
2023-02-12T04:01:16.724Z,9.07143
2023-02-12T04:02:16.781Z,9.07143
2023-02-12T04:03:16.686Z,9.07143
2023-02-12T04:04:16.774Z,9.07143
2023-02-12T04:05:16.756Z,9.07143
2023-02-12T04:06:16.801Z,9
2023-02-12T04:07:16.840Z,9
2023-02-12T04:08:16.874Z,9.07143
2023-02-12T04:09:16.937Z,9.07143
2023-02-12T04:10:16.944Z,9.07143
2023-02-12T04:11:16.985Z,9.07143
2023-02-12T04:12:17.005Z,9.07143
2023-02-12T04:13:17.050Z,9.07143
2023-02-12T04:14:17.094Z,9.07143
2023-02-12T04:15:17.122Z,9.07143
2023-02-12T04:16:17.242Z,9.07143
2023-02-12T04:17:17.227Z,9.07143
2023-02-12T04:18:17.223Z,9.07143
2023-02-12T04:19:17.258Z,9.07143
2023-02-12T04:20:17.293Z,9.07143
2023-02-12T04:21:17.330Z,9.07143
2023-02-12T04:22:17.369Z,9.07143
2023-02-12T04:23:17.388Z,9.07143
2023-02-12T04:24:17.425Z,9.07143
2023-02-12T04:25:17.446Z,9.14286
2023-02-12T04:26:17.480Z,9.14286
2023-02-12T04:27:17.518Z,9.14286
2023-02-12T04:28:17.625Z,9.07143
2023-02-12T04:29:17.604Z,9.07143
2023-02-12T04:30:17.614Z,9.07143
2023-02-12T04:31:17.810Z,9.07143
2023-02-12T04:32:17.679Z,9.14286
2023-02-12T04:33:17.715Z,9.14286
2023-02-12T04:34:17.752Z,9.14286
2023-02-12T04:35:17.783Z,9.14286
2023-02-12T04:36:17.816Z,9.21429
2023-02-12T04:37:17.844Z,9.21429
2023-02-12T04:38:17.872Z,9.21429
2023-02-12T04:39:17.910Z,9.21429
2023-02-12T04:40:17.953Z,9.21429
2023-02-12T04:41:17.974Z,9.21429
2023-02-12T04:42:18.016Z,9.21429
2023-02-12T04:43:18.047Z,9.21429
2023-02-12T04:44:18.084Z,9.14286
2023-02-12T04:45:18.116Z,9.14286
2023-02-12T04:46:18.250Z,9.14286
2023-02-12T04:47:18.182Z,9.14286
2023-02-12T04:48:18.214Z,9.14286
2023-02-12T04:49:18.232Z,9.14286
2023-02-12T04:50:18.270Z,9.14286
2023-02-12T04:51:18.307Z,9.07143
2023-02-12T04:52:18.336Z,9.07143
2023-02-12T04:53:18.376Z,9.07143
2023-02-12T04:54:18.435Z,9
2023-02-12T04:55:18.448Z,9
2023-02-12T04:56:18.478Z,9
2023-02-12T04:57:18.506Z,9
2023-02-12T04:58:18.560Z,9
2023-02-12T04:59:18.606Z,8.92857
2023-02-12T05:00:18.618Z,8.92857
2023-02-12T05:01:18.715Z,8.92857
2023-02-12T05:02:18.673Z,9
2023-02-12T05:03:18.718Z,9
2023-02-12T05:04:18.759Z,8.92857
2023-02-12T05:05:18.815Z,8.92857
2023-02-12T05:06:18.824Z,8.92857
2023-02-12T05:07:18.857Z,8.85714
2023-02-12T05:08:18.894Z,8.85714
2023-02-12T05:09:18.946Z,8.78571
2023-02-12T05:10:18.953Z,8.85714
2023-02-12T05:11:18.989Z,8.78571
2023-02-12T05:12:19.027Z,8.78571
2023-02-12T05:13:19.060Z,8.78571
2023-02-12T05:14:19.096Z,8.78571
2023-02-12T05:15:19.119Z,8.78571
2023-02-12T05:16:19.212Z,8.78571
2023-02-12T05:17:19.205Z,8.78571
2023-02-12T05:18:19.235Z,8.78571
2023-02-12T05:19:19.273Z,8.78571
2023-02-12T05:20:19.303Z,8.78571
2023-02-12T05:21:19.336Z,8.71429
2023-02-12T05:22:19.382Z,8.71429
2023-02-12T05:23:19.403Z,8.71429
2023-02-12T05:24:19.446Z,8.71429
2023-02-12T05:25:19.482Z,8.71429
2023-02-12T05:26:19.513Z,8.71429
2023-02-12T05:27:19.560Z,8.71429
2023-02-12T05:28:19.632Z,8.64286
2023-02-12T05:29:19.619Z,8.64286
2023-02-12T05:30:19.660Z,8.57143
2023-02-12T05:31:21.418Z,8.57143
2023-02-12T05:32:19.810Z,8.57143
2023-02-12T05:33:19.768Z,8.57143
2023-02-12T05:34:19.799Z,8.57143
2023-02-12T05:35:19.831Z,8.57143
2023-02-12T05:36:19.871Z,8.57143
2023-02-12T05:37:19.912Z,8.64286
2023-02-12T05:38:19.958Z,8.64286
2023-02-12T05:39:19.984Z,8.64286
2023-02-12T05:40:20.015Z,8.64286
2023-02-12T05:41:20.045Z,8.64286
2023-02-12T05:42:20.084Z,8.64286
2023-02-12T05:43:20.117Z,8.64286
2023-02-12T05:44:20.146Z,8.57143
2023-02-12T05:45:20.181Z,8.57143
2023-02-12T05:46:20.305Z,8.5
2023-02-12T05:47:20.255Z,8.5
2023-02-12T05:48:20.289Z,8.5
2023-02-12T05:49:20.318Z,8.5
2023-02-12T05:50:20.347Z,8.5
2023-02-12T05:51:20.386Z,8.42857
2023-02-12T05:52:20.416Z,8.35714
2023-02-12T05:53:20.449Z,8.35714
2023-02-12T05:54:20.484Z,8.35714
2023-02-12T05:55:20.517Z,8.35714
2023-02-12T05:56:20.557Z,8.35714
2023-02-12T05:57:20.593Z,8.35714
2023-02-12T05:58:20.638Z,8.42857
2023-02-12T05:59:20.689Z,8.42857
2023-02-12T06:00:20.701Z,8.42857
2023-02-12T06:01:20.747Z,8.42857
2023-02-12T06:02:20.805Z,8.42857
2023-02-12T06:03:20.812Z,8.42857
2023-02-12T06:04:20.942Z,8.42857
2023-02-12T06:05:20.891Z,8.5
2023-02-12T06:06:20.907Z,8.5
2023-02-12T06:07:20.946Z,8.5
2023-02-12T06:08:20.985Z,8.5
2023-02-12T06:09:21.017Z,8.5
2023-02-12T06:10:21.047Z,8.5
2023-02-12T06:11:21.078Z,8.5
2023-02-12T06:12:21.121Z,8.5
2023-02-12T06:13:21.143Z,8.5
2023-02-12T06:14:21.187Z,8.5
2023-02-12T06:15:21.214Z,8.5
2023-02-12T06:16:21.349Z,8.57143
2023-02-12T06:17:21.315Z,8.5
2023-02-12T06:18:21.311Z,8.5
2023-02-12T06:19:21.348Z,8.5
2023-02-12T06:20:21.387Z,8.5
2023-02-12T06:21:21.426Z,8.5
2023-02-12T06:22:21.468Z,8.5
2023-02-12T06:23:21.486Z,8.5
2023-02-12T06:24:21.526Z,8.5
2023-02-12T06:25:21.557Z,8.42857
2023-02-12T06:26:21.613Z,8.42857
2023-02-12T06:27:21.632Z,8.42857
2023-02-12T06:28:21.720Z,8.42857
2023-02-12T06:29:21.699Z,8.42857
2023-02-12T06:30:21.737Z,8.42857
2023-02-12T06:31:21.969Z,8.42857
2023-02-12T06:32:21.876Z,8.42857
2023-02-12T06:33:21.851Z,8.42857
2023-02-12T06:34:21.878Z,8.42857
2023-02-12T06:35:21.920Z,8.5
2023-02-12T06:36:21.966Z,8.5
2023-02-12T06:37:22.054Z,8.5
2023-02-12T06:38:22.063Z,8.5
2023-02-12T06:39:22.072Z,8.5
2023-02-12T06:40:22.101Z,8.5
2023-02-12T06:41:22.143Z,8.5
2023-02-12T06:42:22.184Z,8.5
2023-02-12T06:43:22.221Z,8.5
2023-02-12T06:44:22.237Z,8.5
2023-02-12T06:45:22.278Z,8.5
2023-02-12T06:46:22.372Z,8.5
2023-02-12T06:47:22.352Z,8.5
2023-02-12T06:48:22.388Z,8.5
2023-02-12T06:49:22.419Z,8.42857
2023-02-12T06:50:22.460Z,8.42857
2023-02-12T06:51:22.481Z,8.42857
2023-02-12T06:52:22.509Z,8.42857
2023-02-12T06:53:22.564Z,8.5
2023-02-12T06:54:22.578Z,8.5
2023-02-12T06:55:22.615Z,8.5
2023-02-12T06:56:22.666Z,8.5
2023-02-12T06:57:22.683Z,8.5
2023-02-12T06:58:22.721Z,8.5
2023-02-12T06:59:22.756Z,8.5
2023-02-12T07:00:22.794Z,8.5
2023-02-12T07:01:22.824Z,8.5
2023-02-12T07:02:22.860Z,8.5
2023-02-12T07:03:22.888Z,8.5
2023-02-12T07:04:22.919Z,8.5
2023-02-12T07:05:22.990Z,8.5
2023-02-12T07:06:22.994Z,8.5
2023-02-12T07:07:23.035Z,8.5
2023-02-12T07:08:23.059Z,8.57143
2023-02-12T07:09:23.116Z,8.57143
2023-02-12T07:10:23.122Z,8.57143
2023-02-12T07:11:23.157Z,8.57143
2023-02-12T07:12:23.191Z,8.64286
2023-02-12T07:13:23.226Z,8.64286
2023-02-12T07:14:23.266Z,8.64286
2023-02-12T07:15:23.289Z,8.64286
2023-02-12T07:16:23.392Z,8.64286
2023-02-12T07:17:23.363Z,8.64286
2023-02-12T07:18:23.392Z,8.64286
2023-02-12T07:19:23.426Z,8.64286
2023-02-12T07:20:23.455Z,8.64286
2023-02-12T07:21:23.498Z,8.71429
2023-02-12T07:22:23.524Z,8.71429
2023-02-12T07:23:23.590Z,8.71429
2023-02-12T07:24:23.588Z,8.71429
2023-02-12T07:25:23.611Z,8.71429
2023-02-12T07:26:23.660Z,8.71429
2023-02-12T07:27:23.718Z,8.71429
2023-02-12T07:28:23.785Z,8.71429
2023-02-12T07:29:23.745Z,8.71429
2023-02-12T07:30:23.789Z,8.71429
2023-02-12T07:31:23.984Z,8.71429
2023-02-12T07:32:23.856Z,8.78571
2023-02-12T07:33:23.878Z,8.78571
2023-02-12T07:34:23.914Z,8.78571
2023-02-12T07:35:23.950Z,8.78571
2023-02-12T07:36:23.979Z,8.85714
2023-02-12T07:37:24.012Z,8.85714
2023-02-12T07:38:24.048Z,8.92857
2023-02-12T07:39:24.077Z,8.92857
2023-02-12T07:40:24.110Z,8.92857
2023-02-12T07:41:24.136Z,8.92857
2023-02-12T07:42:24.179Z,8.92857
2023-02-12T07:43:24.215Z,8.85714
2023-02-12T07:44:24.242Z,8.92857
2023-02-12T07:45:24.348Z,8.92857
2023-02-12T07:46:24.311Z,8.92857
2023-02-12T07:47:24.340Z,9
2023-02-12T07:48:24.375Z,9
2023-02-12T07:49:24.422Z,9
2023-02-12T07:50:25.443Z,9
2023-02-12T07:51:24.479Z,9.07143
2023-02-12T07:52:24.515Z,9.07143
2023-02-12T07:53:24.573Z,9.07143
2023-02-12T07:54:24.583Z,9.14286
2023-02-12T07:55:24.627Z,9.14286
2023-02-12T07:56:24.653Z,9.14286
2023-02-12T07:57:24.688Z,9.21429
2023-02-12T07:58:24.729Z,9.21429
2023-02-12T07:59:24.792Z,9.21429
2023-02-12T08:00:24.788Z,9.21429
2023-02-12T08:01:24.826Z,9.21429
2023-02-12T08:02:24.895Z,9.28571
2023-02-12T08:03:24.891Z,9.28571
2023-02-12T08:04:24.992Z,9.28571
2023-02-12T08:05:24.965Z,9.35714
2023-02-12T08:06:24.994Z,9.35714
2023-02-12T08:07:25.036Z,9.42857
2023-02-12T08:08:25.061Z,9.42857
2023-02-12T08:09:25.114Z,9.42857
2023-02-12T08:10:25.137Z,9.5
2023-02-12T08:11:25.206Z,9.5
2023-02-12T08:12:25.205Z,9.5
2023-02-12T08:13:25.242Z,9.57143
2023-02-12T08:14:25.282Z,9.57143
2023-02-12T08:15:25.307Z,9.57143
2023-02-12T08:16:25.403Z,9.64286
2023-02-12T08:17:25.382Z,9.64286
2023-02-12T08:18:25.414Z,9.64286
2023-02-12T08:19:26.723Z,9.71429
2023-02-12T08:20:25.486Z,9.71429
2023-02-12T08:21:25.520Z,9.71429
2023-02-12T08:22:25.569Z,9.71429
2023-02-12T08:23:25.586Z,9.71429
2023-02-12T08:24:25.646Z,9.71429
2023-02-12T08:25:25.652Z,9.71429
2023-02-12T08:26:25.685Z,9.78571
2023-02-12T08:27:25.729Z,9.78571
2023-02-12T08:28:25.803Z,9.78571
2023-02-12T08:29:25.785Z,9.78571
2023-02-12T08:30:25.818Z,9.78571
2023-02-12T08:31:25.958Z,9.78571
2023-02-12T08:32:25.881Z,9.78571
2023-02-12T08:33:25.901Z,9.78571
2023-02-12T08:34:25.934Z,9.78571
2023-02-12T08:35:25.987Z,9.78571
2023-02-12T08:36:26.013Z,9.78571
2023-02-12T08:37:26.054Z,9.78571
2023-02-12T08:38:26.086Z,9.78571
2023-02-12T08:39:26.124Z,9.78571
2023-02-12T08:40:26.141Z,9.85714
2023-02-12T08:41:26.175Z,9.85714
2023-02-12T08:42:26.217Z,9.85714
2023-02-12T08:43:26.243Z,9.85714
2023-02-12T08:44:26.275Z,9.85714
2023-02-12T08:45:26.323Z,9.85714
2023-02-12T08:46:26.407Z,9.85714
2023-02-12T08:47:26.401Z,9.85714
2023-02-12T08:48:26.419Z,9.85714
2023-02-12T08:49:26.447Z,9.85714
2023-02-12T08:50:26.520Z,9.92857
2023-02-12T08:51:26.523Z,9.92857
2023-02-12T08:52:26.555Z,9.92857
2023-02-12T08:53:26.578Z,10
2023-02-12T08:54:26.609Z,10
2023-02-12T08:55:26.644Z,10
2023-02-12T08:56:26.696Z,10.0714
2023-02-12T08:57:26.704Z,10.0714
2023-02-12T08:58:26.737Z,10.0714
2023-02-12T08:59:26.777Z,10.0714
2023-02-12T09:00:26.841Z,10.1429
2023-02-12T09:01:26.966Z,10.1429
2023-02-12T09:02:26.902Z,10.1429
2023-02-12T09:03:26.898Z,10.1429
2023-02-12T09:04:26.930Z,10.2143
2023-02-12T09:05:26.956Z,10.2143
2023-02-12T09:06:26.990Z,10.2143
2023-02-12T09:07:27.024Z,10.2857
2023-02-12T09:08:27.050Z,10.2857
2023-02-12T09:09:27.085Z,10.3571
2023-02-12T09:10:27.118Z,10.4286
2023-02-12T09:11:27.147Z,10.4286
2023-02-12T09:12:27.185Z,10.5
2023-02-12T09:13:27.265Z,10.5714
2023-02-12T09:14:27.259Z,10.5714
2023-02-12T09:15:27.290Z,10.6429
2023-02-12T09:16:28.385Z,10.6429
2023-02-12T09:17:27.393Z,10.6429
2023-02-12T09:18:27.395Z,10.7143
2023-02-12T09:19:27.456Z,10.7143
2023-02-12T09:20:27.453Z,10.7143
2023-02-12T09:21:27.523Z,10.7857
2023-02-12T09:22:27.530Z,10.7857
2023-02-12T09:23:27.581Z,10.8571
2023-02-12T09:24:28.156Z,10.8571
2023-02-12T09:25:27.643Z,10.9286
2023-02-12T09:26:27.669Z,10.9286
2023-02-12T09:27:30.284Z,11
2023-02-12T09:28:27.803Z,11
2023-02-12T09:29:27.790Z,11
2023-02-12T09:30:27.827Z,11.0714
2023-02-12T09:31:28.068Z,11.0714
2023-02-12T09:32:27.890Z,11.1429
2023-02-12T09:33:27.922Z,11.1429
2023-02-12T09:34:27.955Z,11.1429
2023-02-12T09:35:27.995Z,11.1429
2023-02-12T09:36:28.040Z,11.2143
2023-02-12T09:37:28.056Z,11.2143
2023-02-12T09:38:28.081Z,11.2143
2023-02-12T09:39:28.117Z,11.2143
2023-02-12T09:40:28.159Z,11.2143
2023-02-12T09:41:28.183Z,11.2143
2023-02-12T09:42:28.218Z,11.2857
2023-02-12T09:43:28.255Z,11.2857
2023-02-12T09:44:28.307Z,11.2857
2023-02-12T09:45:28.324Z,11.2857
2023-02-12T09:46:28.383Z,11.2857
2023-02-12T09:47:28.391Z,11.3571
2023-02-12T09:48:28.419Z,11.3571
2023-02-12T09:49:28.454Z,11.3571
2023-02-12T09:50:28.500Z,11.3571
2023-02-12T09:51:28.532Z,11.3571
2023-02-12T09:52:28.561Z,11.3571
2023-02-12T09:53:28.596Z,11.3571
2023-02-12T09:54:28.640Z,11.2857
2023-02-12T09:55:28.676Z,11.2857
2023-02-12T09:56:28.729Z,11.2857
2023-02-12T09:57:28.750Z,11.2857
2023-02-12T09:58:28.778Z,11.2857
2023-02-12T09:59:28.805Z,11.2857
2023-02-12T10:00:28.877Z,11.2857
2023-02-12T10:01:28.982Z,11.2857
2023-02-12T10:02:28.960Z,11.2857
2023-02-12T10:03:28.957Z,11.2857
2023-02-12T10:04:29.090Z,11.2857
2023-02-12T10:05:29.023Z,11.3571
2023-02-12T10:06:29.054Z,11.3571
2023-02-12T10:07:29.097Z,11.3571
2023-02-12T10:08:29.140Z,11.4286
2023-02-12T10:09:29.157Z,11.4286
2023-02-12T10:10:29.209Z,11.5
2023-02-12T10:11:29.215Z,11.5
2023-02-12T10:12:29.256Z,11.5
2023-02-12T10:13:29.298Z,11.5
2023-02-12T10:14:29.336Z,11.5714
2023-02-12T10:15:29.398Z,11.5714
2023-02-12T10:16:29.399Z,11.5714
2023-02-12T10:17:29.438Z,11.5714
2023-02-12T10:18:29.550Z,11.6429
2023-02-12T10:19:29.516Z,11.6429
2023-02-12T10:20:29.541Z,11.6429
2023-02-12T10:21:29.576Z,11.7143
2023-02-12T10:22:29.605Z,11.7143
2023-02-12T10:23:29.656Z,11.7143
2023-02-12T10:24:29.689Z,11.7143
2023-02-12T10:25:29.708Z,11.7143
2023-02-12T10:26:29.740Z,11.7143
2023-02-12T10:27:29.767Z,11.7143
2023-02-12T10:28:30.003Z,11.7143
2023-02-12T10:29:29.841Z,11.7143
2023-02-12T10:30:29.875Z,11.7143
2023-02-12T10:31:30.525Z,11.7143
2023-02-12T10:32:29.946Z,11.7143
2023-02-12T10:33:29.978Z,11.7143
2023-02-12T10:34:30.009Z,11.7857
2023-02-12T10:35:30.042Z,11.7857
2023-02-12T10:36:30.091Z,11.8571
2023-02-12T10:37:30.108Z,11.8571
2023-02-12T10:38:30.134Z,11.8571
2023-02-12T10:39:30.169Z,11.9286
2023-02-12T10:40:30.202Z,11.9286
2023-02-12T10:41:30.244Z,12
2023-02-12T10:42:30.268Z,12
2023-02-12T10:43:30.307Z,12
2023-02-12T10:44:30.340Z,12
2023-02-12T10:45:30.381Z,12
2023-02-12T10:46:30.522Z,12
2023-02-12T10:47:30.452Z,12
2023-02-12T10:48:30.502Z,12
2023-02-12T10:49:30.524Z,12
2023-02-12T10:50:30.603Z,11.9286
2023-02-12T10:51:30.601Z,11.9286
2023-02-12T10:52:30.635Z,11.9286
2023-02-12T10:53:30.669Z,11.8571
2023-02-12T10:54:30.692Z,11.8571
2023-02-12T10:55:30.740Z,11.7857
2023-02-12T10:56:30.767Z,11.7857
2023-02-12T10:57:30.804Z,11.7143
2023-02-12T10:58:30.834Z,11.7143
2023-02-12T10:59:30.878Z,11.6429
2023-02-12T11:00:30.908Z,11.6429
2023-02-12T11:01:30.988Z,11.6429
2023-02-12T11:02:31.027Z,11.6429
2023-02-12T11:03:31.010Z,11.6429
2023-02-12T11:04:31.092Z,11.6429
2023-02-12T11:05:31.072Z,11.6429
2023-02-12T11:06:31.100Z,11.6429
2023-02-12T11:07:31.129Z,11.6429
2023-02-12T11:08:31.177Z,11.6429
2023-02-12T11:09:31.209Z,11.6429
2023-02-12T11:10:31.244Z,11.6429
2023-02-12T11:11:31.271Z,11.6429
2023-02-12T11:12:31.312Z,11.7143
2023-02-12T11:13:31.341Z,11.6429
2023-02-12T11:14:31.372Z,11.6429
2023-02-12T11:15:31.429Z,11.6429
2023-02-12T11:16:31.483Z,11.7143
2023-02-12T11:17:31.474Z,11.7143
2023-02-12T11:18:31.501Z,11.7143
2023-02-12T11:19:31.531Z,11.7143
2023-02-12T11:20:31.559Z,11.7143
2023-02-12T11:21:31.600Z,11.7143
2023-02-12T11:22:31.640Z,11.7143
2023-02-12T11:23:31.654Z,11.7143
2023-02-12T11:24:31.707Z,11.7143
2023-02-12T11:25:31.736Z,11.7143
2023-02-12T11:26:31.765Z,11.7143
2023-02-12T11:27:31.801Z,11.7857
2023-02-12T11:28:31.989Z,11.7857
2023-02-12T11:29:31.863Z,11.7857
2023-02-12T11:30:31.896Z,11.7857
2023-02-12T11:31:32.036Z,11.7857
2023-02-12T11:32:31.963Z,11.7857
2023-02-12T11:33:32.015Z,11.8571
2023-02-12T11:34:32.033Z,11.8571
2023-02-12T11:35:32.059Z,11.8571
2023-02-12T11:36:32.088Z,11.8571
2023-02-12T11:37:32.117Z,11.8571
2023-02-12T11:38:32.154Z,11.8571
2023-02-12T11:39:32.223Z,11.8571
2023-02-12T11:40:32.224Z,11.8571
2023-02-12T11:41:32.260Z,11.7857
2023-02-12T11:42:32.285Z,11.7857
2023-02-12T11:43:32.329Z,11.7857
2023-02-12T11:44:32.379Z,11.7857
2023-02-12T11:45:32.395Z,11.7143
2023-02-12T11:46:32.459Z,11.7143
2023-02-12T11:47:32.465Z,11.7143
2023-02-12T11:48:32.501Z,11.7143
2023-02-12T11:49:32.539Z,11.7143
2023-02-12T11:50:32.586Z,11.7143
2023-02-12T11:51:32.618Z,11.7857
2023-02-12T11:52:32.663Z,11.7857
2023-02-12T11:53:32.700Z,11.8571
2023-02-12T11:54:32.736Z,11.8571
2023-02-12T11:55:33.679Z,11.8571
2023-02-12T11:56:32.807Z,11.9286
2023-02-12T11:57:32.831Z,11.9286
2023-02-12T11:58:32.867Z,11.9286
2023-02-12T11:59:32.893Z,12
2023-02-12T12:00:32.928Z,12.0714
2023-02-12T12:01:32.945Z,12.0714
2023-02-12T12:02:32.976Z,12.1429
2023-02-12T12:03:33.044Z,12.1429
2023-02-12T12:04:33.047Z,12.2143
2023-02-12T12:05:33.157Z,12.2143
2023-02-12T12:06:33.122Z,12.2143
2023-02-12T12:07:33.152Z,12.2143
2023-02-12T12:08:33.186Z,12.2143
2023-02-12T12:09:33.217Z,12.2143
2023-02-12T12:10:33.379Z,12.2857
2023-02-12T12:11:33.295Z,12.2143
2023-02-12T12:12:33.354Z,12.2857
2023-02-12T12:13:33.354Z,12.2857
2023-02-12T12:14:33.388Z,12.2857
2023-02-12T12:15:33.450Z,12.2857
2023-02-12T12:16:33.549Z,12.2857
2023-02-12T12:17:33.495Z,12.3571
2023-02-12T12:18:33.532Z,12.3571
2023-02-12T12:19:33.566Z,12.4286
2023-02-12T12:20:33.599Z,12.5